sensor_id;sensor_type;location;lat;lon;timestamp;pressure;altitude;pressure_sealevel;temperature;humidity
74466;BME280;62916;50.044;15.938;2023-07-28T00:02:24;98295.11;;;25.30;41.51
74466;BME280;62916;50.044;15.938;2023-07-28T00:04:55;98291.29;;;25.29;41.48
74466;BME280;62916;50.044;15.938;2023-07-28T00:07:26;98289.16;;;25.29;41.42
74466;BME280;62916;50.044;15.938;2023-07-28T00:09:57;98291.27;;;25.29;41.58
74466;BME280;62916;50.044;15.938;2023-07-28T00:12:28;98289.48;;;25.29;41.52
74466;BME280;62916;50.044;15.938;2023-07-28T00:14:59;98282.83;;;25.28;41.64
74466;BME280;62916;50.044;15.938;2023-07-28T00:17:30;98283.80;;;25.28;41.66
74466;BME280;62916;50.044;15.938;2023-07-28T00:20:01;98280.63;;;25.28;41.66
74466;BME280;62916;50.044;15.938;2023-07-28T00:22:32;98278.18;;;25.27;41.74
74466;BME280;62916;50.044;15.938;2023-07-28T00:25:03;98278.07;;;25.26;41.68
74466;BME280;62916;50.044;15.938;2023-07-28T00:27:34;98277.98;;;25.26;41.75
74466;BME280;62916;50.044;15.938;2023-07-28T00:30:07;98278.15;;;25.26;41.80
74466;BME280;62916;50.044;15.938;2023-07-28T00:32:40;98271.25;;;25.26;42.10
74466;BME280;62916;50.044;15.938;2023-07-28T00:35:11;98270.03;;;25.26;42.09
74466;BME280;62916;50.044;15.938;2023-07-28T00:37:41;98265.71;;;25.25;42.14
74466;BME280;62916;50.044;15.938;2023-07-28T00:40:13;98264.91;;;25.25;42.11
74466;BME280;62916;50.044;15.938;2023-07-28T00:42:45;98263.54;;;25.25;42.06
74466;BME280;62916;50.044;15.938;2023-07-28T00:45:16;98264.34;;;25.24;42.22
74466;BME280;62916;50.044;15.938;2023-07-28T00:47:47;98264.57;;;25.24;42.16
74466;BME280;62916;50.044;15.938;2023-07-28T00:50:18;98264.25;;;25.25;42.19
74466;BME280;62916;50.044;15.938;2023-07-28T00:52:50;98258.98;;;25.24;42.22
74466;BME280;62916;50.044;15.938;2023-07-28T00:55:21;98254.91;;;25.24;42.55
74466;BME280;62916;50.044;15.938;2023-07-28T00:57:52;98251.21;;;25.25;42.41
74466;BME280;62916;50.044;15.938;2023-07-28T01:00:23;98246.84;;;25.25;42.40
74466;BME280;62916;50.044;15.938;2023-07-28T01:02:54;98245.45;;;25.25;42.48
74466;BME280;62916;50.044;15.938;2023-07-28T01:05:28;98240.68;;;25.26;42.42
74466;BME280;62916;50.044;15.938;2023-07-28T01:08:06;98239.16;;;25.27;42.25
74466;BME280;62916;50.044;15.938;2023-07-28T01:10:41;98236.77;;;25.29;42.39
74466;BME280;62916;50.044;15.938;2023-07-28T01:13:12;98236.70;;;25.29;42.46
74466;BME280;62916;50.044;15.938;2023-07-28T01:15:43;98237.52;;;25.29;42.40
74466;BME280;62916;50.044;15.938;2023-07-28T01:18:14;98235.55;;;25.28;42.42
74466;BME280;62916;50.044;15.938;2023-07-28T01:20:47;98233.10;;;25.27;42.45
74466;BME280;62916;50.044;15.938;2023-07-28T01:23:22;98231.31;;;25.28;42.49
74466;BME280;62916;50.044;15.938;2023-07-28T01:26:05;98230.09;;;25.27;42.38
74466;BME280;62916;50.044;15.938;2023-07-28T01:28:36;98224.48;;;25.27;42.58
74466;BME280;62916;50.044;15.938;2023-07-28T01:31:08;98224.59;;;25.28;42.65
74466;BME280;62916;50.044;15.938;2023-07-28T01:33:39;98219.89;;;25.28;42.51
74466;BME280;62916;50.044;15.938;2023-07-28T01:36:10;98214.95;;;25.28;42.56
74466;BME280;62916;50.044;15.938;2023-07-28T01:38:42;98212.98;;;25.27;42.44
74466;BME280;62916;50.044;15.938;2023-07-28T01:41:13;98213.72;;;25.28;42.47
74466;BME280;62916;50.044;15.938;2023-07-28T01:43:44;98214.88;;;25.28;42.80
74466;BME280;62916;50.044;15.938;2023-07-28T01:46:14;98210.35;;;25.29;42.47
74466;BME280;62916;50.044;15.938;2023-07-28T01:48:45;98210.61;;;25.30;42.71
74466;BME280;62916;50.044;15.938;2023-07-28T01:51:16;98214.42;;;25.30;42.77
74466;BME280;62916;50.044;15.938;2023-07-28T01:53:47;98208.66;;;25.30;42.68
74466;BME280;62916;50.044;15.938;2023-07-28T01:56:18;98205.98;;;25.29;42.76
74466;BME280;62916;50.044;15.938;2023-07-28T01:58:49;98202.23;;;25.29;42.59
74466;BME280;62916;50.044;15.938;2023-07-28T02:01:20;98199.07;;;25.29;42.64
74466;BME280;62916;50.044;15.938;2023-07-28T02:03:50;98202.15;;;25.28;42.67
74466;BME280;62916;50.044;15.938;2023-07-28T02:06:21;98196.93;;;25.28;42.95
74466;BME280;62916;50.044;15.938;2023-07-28T02:08:52;98199.77;;;25.27;42.85
74466;BME280;62916;50.044;15.938;2023-07-28T02:11:23;98197.81;;;25.27;42.70
74466;BME280;62916;50.044;15.938;2023-07-28T02:13:54;98191.80;;;25.27;42.96
74466;BME280;62916;50.044;15.938;2023-07-28T02:16:25;98191.23;;;25.27;43.20
74466;BME280;62916;50.044;15.938;2023-07-28T02:18:57;98187.41;;;25.26;43.03
74466;BME280;62916;50.044;15.938;2023-07-28T02:21:28;98192.36;;;25.26;42.93
74466;BME280;62916;50.044;15.938;2023-07-28T02:24:00;98187.34;;;25.27;43.14
74466;BME280;62916;50.044;15.938;2023-07-28T02:26:31;98185.14;;;25.26;43.20
74466;BME280;62916;50.044;15.938;2023-07-28T02:29:02;98186.19;;;25.26;43.02
74466;BME280;62916;50.044;15.938;2023-07-28T02:31:33;98188.29;;;25.26;43.15
74466;BME280;62916;50.044;15.938;2023-07-28T02:34:04;98192.09;;;25.25;43.18
74466;BME280;62916;50.044;15.938;2023-07-28T02:36:35;98188.43;;;25.24;43.30
74466;BME280;62916;50.044;15.938;2023-07-28T02:39:06;98185.45;;;25.25;43.41
74466;BME280;62916;50.044;15.938;2023-07-28T02:41:37;98184.37;;;25.24;43.44
74466;BME280;62916;50.044;15.938;2023-07-28T02:44:08;98181.30;;;25.24;43.48
74466;BME280;62916;50.044;15.938;2023-07-28T02:46:38;98176.27;;;25.24;43.59
74466;BME280;62916;50.044;15.938;2023-07-28T02:49:09;98177.09;;;25.24;43.65
74466;BME280;62916;50.044;15.938;2023-07-28T02:51:40;98179.23;;;25.22;43.76
74466;BME280;62916;50.044;15.938;2023-07-28T02:54:11;98179.52;;;25.24;43.59
74466;BME280;62916;50.044;15.938;2023-07-28T02:56:42;98174.39;;;25.23;43.71
74466;BME280;62916;50.044;15.938;2023-07-28T02:59:15;98178.86;;;25.23;43.44
74466;BME280;62916;50.044;15.938;2023-07-28T03:01:46;98179.18;;;25.23;43.73
74466;BME280;62916;50.044;15.938;2023-07-28T03:04:17;98174.73;;;25.25;43.59
74466;BME280;62916;50.044;15.938;2023-07-28T03:06:49;98177.18;;;25.25;43.87
74466;BME280;62916;50.044;15.938;2023-07-28T03:09:20;98173.06;;;25.26;43.51
74466;BME280;62916;50.044;15.938;2023-07-28T03:11:50;98172.40;;;25.26;43.74
74466;BME280;62916;50.044;15.938;2023-07-28T03:14:21;98173.20;;;25.26;43.81
74466;BME280;62916;50.044;15.938;2023-07-28T03:16:53;98178.05;;;25.25;43.74
74466;BME280;62916;50.044;15.938;2023-07-28T03:19:24;98176.27;;;25.24;43.82
74466;BME280;62916;50.044;15.938;2023-07-28T03:21:55;98177.08;;;25.24;43.94
74466;BME280;62916;50.044;15.938;2023-07-28T03:24:26;98178.37;;;25.23;43.92
74466;BME280;62916;50.044;15.938;2023-07-28T03:26:57;98180.21;;;25.23;43.34
74466;BME280;62916;50.044;15.938;2023-07-28T03:29:28;98182.88;;;25.22;43.37
74466;BME280;62916;50.044;15.938;2023-07-28T03:31:59;98180.13;;;25.22;43.70
74466;BME280;62916;50.044;15.938;2023-07-28T03:34:30;98182.90;;;25.23;43.51
74466;BME280;62916;50.044;15.938;2023-07-28T03:37:01;98188.67;;;25.23;43.99
74466;BME280;62916;50.044;15.938;2023-07-28T03:39:32;98187.14;;;25.25;43.81
74466;BME280;62916;50.044;15.938;2023-07-28T03:42:03;98182.14;;;25.26;43.57
74466;BME280;62916;50.044;15.938;2023-07-28T03:44:35;98178.90;;;25.26;43.10
74466;BME280;62916;50.044;15.938;2023-07-28T03:47:07;98180.20;;;25.26;43.33
74466;BME280;62916;50.044;15.938;2023-07-28T03:49:38;98180.39;;;25.28;43.20
74466;BME280;62916;50.044;15.938;2023-07-28T03:52:09;98175.96;;;25.29;43.15
74466;BME280;62916;50.044;15.938;2023-07-28T03:54:40;98177.35;;;25.29;43.09
74466;BME280;62916;50.044;15.938;2023-07-28T03:57:11;98174.11;;;25.30;43.08
74466;BME280;62916;50.044;15.938;2023-07-28T03:59:42;98176.44;;;25.28;43.49
74466;BME280;62916;50.044;15.938;2023-07-28T04:02:13;98174.59;;;25.29;43.22
74466;BME280;62916;50.044;15.938;2023-07-28T04:04:44;98172.09;;;25.30;42.72
74466;BME280;62916;50.044;15.938;2023-07-28T04:07:15;98169.52;;;25.32;42.90
74466;BME280;62916;50.044;15.938;2023-07-28T04:09:46;98168.23;;;25.31;43.27
74466;BME280;62916;50.044;15.938;2023-07-28T04:12:16;98170.42;;;25.32;43.51
74466;BME280;62916;50.044;15.938;2023-07-28T04:14:47;98167.35;;;25.32;43.58
74466;BME280;62916;50.044;15.938;2023-07-28T04:17:18;98163.30;;;25.32;43.84
74466;BME280;62916;50.044;15.938;2023-07-28T04:19:49;98165.90;;;25.33;43.66
74466;BME280;62916;50.044;15.938;2023-07-28T04:22:20;98165.41;;;25.32;43.80
74466;BME280;62916;50.044;15.938;2023-07-28T04:24:51;98167.94;;;25.33;44.05
74466;BME280;62916;50.044;15.938;2023-07-28T04:27:23;98170.55;;;25.34;44.09
74466;BME280;62916;50.044;15.938;2023-07-28T04:29:54;98172.49;;;25.34;44.07
74466;BME280;62916;50.044;15.938;2023-07-28T04:32:25;98174.91;;;25.34;43.86
74466;BME280;62916;50.044;15.938;2023-07-28T04:34:56;98177.48;;;25.32;44.00
74466;BME280;62916;50.044;15.938;2023-07-28T04:37:26;98177.39;;;25.31;43.75
74466;BME280;62916;50.044;15.938;2023-07-28T04:39:57;98179.32;;;25.31;43.91
74466;BME280;62916;50.044;15.938;2023-07-28T04:42:28;98179.30;;;25.30;43.96
74466;BME280;62916;50.044;15.938;2023-07-28T04:44:59;98180.16;;;25.28;43.79
74466;BME280;62916;50.044;15.938;2023-07-28T04:47:30;98181.44;;;25.27;43.96
74466;BME280;62916;50.044;15.938;2023-07-28T04:50:01;98184.34;;;25.26;43.81
74466;BME280;62916;50.044;15.938;2023-07-28T04:52:32;98187.88;;;25.25;43.87
74466;BME280;62916;50.044;15.938;2023-07-28T04:55:03;98186.48;;;25.25;43.56
74466;BME280;62916;50.044;15.938;2023-07-28T04:57:34;98190.45;;;25.24;43.86
74466;BME280;62916;50.044;15.938;2023-07-28T05:00:08;98187.13;;;25.24;43.74
74466;BME280;62916;50.044;15.938;2023-07-28T05:02:40;98184.44;;;25.22;43.92
74466;BME280;62916;50.044;15.938;2023-07-28T05:05:10;98182.16;;;25.22;43.68
74466;BME280;62916;50.044;15.938;2023-07-28T05:07:41;98180.22;;;25.23;43.75
74466;BME280;62916;50.044;15.938;2023-07-28T05:10:13;98176.45;;;25.21;43.80
74466;BME280;62916;50.044;15.938;2023-07-28T05:12:44;98176.91;;;25.20;43.92
74466;BME280;62916;50.044;15.938;2023-07-28T05:15:17;98182.59;;;25.20;43.75
74466;BME280;62916;50.044;15.938;2023-07-28T05:17:48;98187.21;;;25.19;43.84
74466;BME280;62916;50.044;15.938;2023-07-28T05:20:19;98189.48;;;25.20;44.05
74466;BME280;62916;50.044;15.938;2023-07-28T05:22:50;98191.20;;;25.20;43.83
74466;BME280;62916;50.044;15.938;2023-07-28T05:25:21;98191.28;;;25.21;43.87
74466;BME280;62916;50.044;15.938;2023-07-28T05:27:52;98194.02;;;25.20;43.94
74466;BME280;62916;50.044;15.938;2023-07-28T05:30:23;98195.05;;;25.19;43.89
74466;BME280;62916;50.044;15.938;2023-07-28T05:32:58;98195.37;;;25.19;43.98
74466;BME280;62916;50.044;15.938;2023-07-28T05:35:29;98196.91;;;25.19;44.09
74466;BME280;62916;50.044;15.938;2023-07-28T05:38:00;98201.05;;;25.19;43.88
74466;BME280;62916;50.044;15.938;2023-07-28T05:40:31;98208.89;;;25.18;43.95
74466;BME280;62916;50.044;15.938;2023-07-28T05:43:02;98207.62;;;25.19;43.80
74466;BME280;62916;50.044;15.938;2023-07-28T05:45:33;98205.79;;;25.20;43.64
74466;BME280;62916;50.044;15.938;2023-07-28T05:48:05;98209.70;;;25.21;43.79
74466;BME280;62916;50.044;15.938;2023-07-28T05:50:39;98211.33;;;25.21;43.84
74466;BME280;62916;50.044;15.938;2023-07-28T05:53:10;98211.71;;;25.21;43.79
74466;BME280;62916;50.044;15.938;2023-07-28T05:55:41;98210.80;;;25.20;43.79
74466;BME280;62916;50.044;15.938;2023-07-28T05:58:12;98210.09;;;25.17;43.87
74466;BME280;62916;50.044;15.938;2023-07-28T06:00:43;98212.32;;;25.15;43.79
74466;BME280;62916;50.044;15.938;2023-07-28T06:03:14;98212.06;;;25.14;43.98
74466;BME280;62916;50.044;15.938;2023-07-28T06:05:45;98213.50;;;25.13;43.66
74466;BME280;62916;50.044;15.938;2023-07-28T06:08:16;98218.92;;;25.12;43.93
74466;BME280;62916;50.044;15.938;2023-07-28T06:10:47;98217.84;;;25.11;43.89
74466;BME280;62916;50.044;15.938;2023-07-28T06:13:18;98220.29;;;25.08;44.01
74466;BME280;62916;50.044;15.938;2023-07-28T06:15:49;98222.73;;;25.09;43.98
74466;BME280;62916;50.044;15.938;2023-07-28T06:18:19;98222.69;;;25.08;44.10
74466;BME280;62916;50.044;15.938;2023-07-28T06:20:51;98227.97;;;25.08;44.04
74466;BME280;62916;50.044;15.938;2023-07-28T06:23:22;98227.30;;;25.07;44.14
74466;BME280;62916;50.044;15.938;2023-07-28T06:25:53;98227.80;;;25.08;44.03
74466;BME280;62916;50.044;15.938;2023-07-28T06:28:24;98231.04;;;25.08;44.11
74466;BME280;62916;50.044;15.938;2023-07-28T06:30:56;98232.33;;;25.07;44.05
74466;BME280;62916;50.044;15.938;2023-07-28T06:33:29;98235.38;;;25.06;44.15
74466;BME280;62916;50.044;15.938;2023-07-28T06:36:00;98241.77;;;25.06;44.14
74466;BME280;62916;50.044;15.938;2023-07-28T06:38:31;98240.39;;;25.05;44.33
74466;BME280;62916;50.044;15.938;2023-07-28T06:41:03;98245.08;;;25.04;44.05
74466;BME280;62916;50.044;15.938;2023-07-28T06:43:34;98246.14;;;25.05;44.24
74466;BME280;62916;50.044;15.938;2023-07-28T06:46:05;98245.46;;;25.03;44.25
74466;BME280;62916;50.044;15.938;2023-07-28T06:48:36;98242.97;;;25.04;44.34
74466;BME280;62916;50.044;15.938;2023-07-28T06:51:07;98247.11;;;25.05;44.32
74466;BME280;62916;50.044;15.938;2023-07-28T06:53:38;98250.76;;;25.05;44.15
74466;BME280;62916;50.044;15.938;2023-07-28T06:56:09;98249.72;;;25.06;44.46
74466;BME280;62916;50.044;15.938;2023-07-28T06:58:40;98250.45;;;25.05;44.40
74466;BME280;62916;50.044;15.938;2023-07-28T07:01:19;98248.58;;;25.05;44.48
74466;BME280;62916;50.044;15.938;2023-07-28T07:03:51;98254.00;;;25.05;44.51
74466;BME280;62916;50.044;15.938;2023-07-28T07:06:22;98252.31;;;25.06;44.51
74466;BME280;62916;50.044;15.938;2023-07-28T07:08:53;98249.48;;;25.06;44.52
74466;BME280;62916;50.044;15.938;2023-07-28T07:11:24;98253.54;;;25.06;44.64
74466;BME280;62916;50.044;15.938;2023-07-28T07:13:55;98254.52;;;25.07;44.92
74466;BME280;62916;50.044;15.938;2023-07-28T07:16:25;98251.14;;;25.07;44.77
74466;BME280;62916;50.044;15.938;2023-07-28T07:18:57;98255.38;;;25.09;44.72
74466;BME280;62916;50.044;15.938;2023-07-28T07:21:28;98260.66;;;25.09;44.75
74466;BME280;62916;50.044;15.938;2023-07-28T07:23:59;98259.45;;;25.09;44.71
74466;BME280;62916;50.044;15.938;2023-07-28T07:26:30;98260.11;;;25.09;44.70
74466;BME280;62916;50.044;15.938;2023-07-28T07:29:02;98261.95;;;25.09;44.76
74466;BME280;62916;50.044;15.938;2023-07-28T07:31:32;98272.10;;;25.09;44.76
74466;BME280;62916;50.044;15.938;2023-07-28T07:34:04;98269.98;;;25.08;44.86
74466;BME280;62916;50.044;15.938;2023-07-28T07:36:35;98272.06;;;25.08;44.95
74466;BME280;62916;50.044;15.938;2023-07-28T07:39:06;98280.72;;;25.07;44.80
74466;BME280;62916;50.044;15.938;2023-07-28T07:41:37;98280.06;;;25.07;44.80
74466;BME280;62916;50.044;15.938;2023-07-28T07:44:08;98276.07;;;25.06;44.75
74466;BME280;62916;50.044;15.938;2023-07-28T07:46:40;98273.14;;;25.05;44.89
74466;BME280;62916;50.044;15.938;2023-07-28T07:49:13;98274.27;;;25.05;44.77
74466;BME280;62916;50.044;15.938;2023-07-28T07:51:44;98272.41;;;25.05;44.76
74466;BME280;62916;50.044;15.938;2023-07-28T07:54:15;98274.17;;;25.04;44.88
74466;BME280;62916;50.044;15.938;2023-07-28T07:56:48;98275.69;;;25.03;45.01
74466;BME280;62916;50.044;15.938;2023-07-28T07:59:18;98275.95;;;25.04;44.98
74466;BME280;62916;50.044;15.938;2023-07-28T08:01:49;98277.08;;;25.03;45.05
74466;BME280;62916;50.044;15.938;2023-07-28T08:04:20;98277.71;;;25.02;44.99
74466;BME280;62916;50.044;15.938;2023-07-28T08:06:51;98272.21;;;25.03;45.07
74466;BME280;62916;50.044;15.938;2023-07-28T08:09:22;98271.80;;;25.03;44.89
74466;BME280;62916;50.044;15.938;2023-07-28T08:11:54;98267.83;;;25.03;45.02
74466;BME280;62916;50.044;15.938;2023-07-28T08:14:25;98272.85;;;25.02;45.02
74466;BME280;62916;50.044;15.938;2023-07-28T08:16:55;98282.11;;;25.03;45.26
74466;BME280;62916;50.044;15.938;2023-07-28T08:19:26;98283.02;;;25.04;45.19
74466;BME280;62916;50.044;15.938;2023-07-28T08:21:58;98282.85;;;25.05;45.26
74466;BME280;62916;50.044;15.938;2023-07-28T08:24:29;98286.98;;;25.04;45.29
74466;BME280;62916;50.044;15.938;2023-07-28T08:27:00;98285.45;;;25.05;45.27
74466;BME280;62916;50.044;15.938;2023-07-28T08:29:31;98289.36;;;25.06;45.23
74466;BME280;62916;50.044;15.938;2023-07-28T08:32:02;98290.20;;;25.07;45.20
74466;BME280;62916;50.044;15.938;2023-07-28T08:34:33;98284.29;;;25.07;45.35
74466;BME280;62916;50.044;15.938;2023-07-28T08:37:04;98286.75;;;25.08;45.40
74466;BME280;62916;50.044;15.938;2023-07-28T08:39:35;98281.80;;;25.08;45.30
74466;BME280;62916;50.044;15.938;2023-07-28T08:42:07;98283.68;;;25.09;45.06
74466;BME280;62916;50.044;15.938;2023-07-28T08:44:38;98284.16;;;25.08;45.09
74466;BME280;62916;50.044;15.938;2023-07-28T08:47:08;98288.48;;;25.10;44.99
74466;BME280;62916;50.044;15.938;2023-07-28T08:49:39;98285.64;;;25.10;45.30
74466;BME280;62916;50.044;15.938;2023-07-28T08:52:16;98284.27;;;25.09;45.16
74466;BME280;62916;50.044;15.938;2023-07-28T08:54:47;98288.27;;;25.10;45.04
74466;BME280;62916;50.044;15.938;2023-07-28T08:57:18;98287.88;;;25.11;44.99
74466;BME280;62916;50.044;15.938;2023-07-28T08:59:50;98289.65;;;25.11;45.16
74466;BME280;62916;50.044;15.938;2023-07-28T09:02:23;98291.61;;;25.11;45.16
74466;BME280;62916;50.044;15.938;2023-07-28T09:04:54;98295.45;;;25.12;45.14
74466;BME280;62916;50.044;15.938;2023-07-28T09:07:24;98292.30;;;25.13;45.29
74466;BME280;62916;50.044;15.938;2023-07-28T09:10:01;98294.25;;;25.14;45.18
74466;BME280;62916;50.044;15.938;2023-07-28T09:12:33;98298.73;;;25.15;44.98
74466;BME280;62916;50.044;15.938;2023-07-28T09:15:07;98294.05;;;25.16;44.95
74466;BME280;62916;50.044;15.938;2023-07-28T09:17:43;98294.79;;;25.16;45.00
74466;BME280;62916;50.044;15.938;2023-07-28T09:20:17;98295.66;;;25.15;44.90
74466;BME280;62916;50.044;15.938;2023-07-28T09:22:52;98295.85;;;25.16;45.00
74466;BME280;62916;50.044;15.938;2023-07-28T09:25:24;98298.63;;;25.17;45.15
74466;BME280;62916;50.044;15.938;2023-07-28T09:27:55;98294.83;;;25.17;44.99
74466;BME280;62916;50.044;15.938;2023-07-28T09:30:27;98298.72;;;25.18;44.98
74466;BME280;62916;50.044;15.938;2023-07-28T09:32:58;98297.86;;;25.19;44.94
74466;BME280;62916;50.044;15.938;2023-07-28T09:35:29;98299.55;;;25.18;44.86
74466;BME280;62916;50.044;15.938;2023-07-28T09:38:00;98304.34;;;25.19;44.98
74466;BME280;62916;50.044;15.938;2023-07-28T09:40:32;98301.33;;;25.18;44.94
74466;BME280;62916;50.044;15.938;2023-07-28T09:43:03;98300.35;;;25.18;45.08
74466;BME280;62916;50.044;15.938;2023-07-28T09:45:35;98301.00;;;25.18;44.86
74466;BME280;62916;50.044;15.938;2023-07-28T09:48:09;98298.58;;;25.18;44.97
74466;BME280;62916;50.044;15.938;2023-07-28T09:50:42;98296.08;;;25.19;44.77
74466;BME280;62916;50.044;15.938;2023-07-28T09:53:14;98294.63;;;25.19;44.84
74466;BME280;62916;50.044;15.938;2023-07-28T09:55:47;98293.58;;;25.19;44.98
74466;BME280;62916;50.044;15.938;2023-07-28T09:58:22;98291.23;;;25.20;44.97
74466;BME280;62916;50.044;15.938;2023-07-28T10:00:55;98289.33;;;25.21;44.82
74466;BME280;62916;50.044;15.938;2023-07-28T10:03:27;98285.27;;;25.21;44.72
74466;BME280;62916;50.044;15.938;2023-07-28T10:05:59;98283.40;;;25.21;44.88
74466;BME280;62916;50.044;15.938;2023-07-28T10:08:31;98274.89;;;25.21;44.96
74466;BME280;62916;50.044;15.938;2023-07-28T10:11:03;98268.58;;;25.22;44.85
74466;BME280;62916;50.044;15.938;2023-07-28T10:13:42;98269.33;;;25.23;44.85
74466;BME280;62916;50.044;15.938;2023-07-28T10:16:17;98269.00;;;25.22;44.71
74466;BME280;62916;50.044;15.938;2023-07-28T10:18:55;98277.38;;;25.24;45.03
74466;BME280;62916;50.044;15.938;2023-07-28T10:21:29;98280.21;;;25.24;44.94
74466;BME280;62916;50.044;15.938;2023-07-28T10:24:02;98281.03;;;25.25;44.92
74466;BME280;62916;50.044;15.938;2023-07-28T10:26:38;98285.69;;;25.26;45.10
74466;BME280;62916;50.044;15.938;2023-07-28T10:29:14;98288.88;;;25.27;45.12
74466;BME280;62916;50.044;15.938;2023-07-28T10:31:52;98285.23;;;25.27;45.21
74466;BME280;62916;50.044;15.938;2023-07-28T10:34:24;98278.27;;;25.28;45.06
74466;BME280;62916;50.044;15.938;2023-07-28T10:37:01;98276.74;;;25.28;44.99
74466;BME280;62916;50.044;15.938;2023-07-28T10:39:35;98279.83;;;25.28;45.08
74466;BME280;62916;50.044;15.938;2023-07-28T10:42:09;98276.43;;;25.29;44.77
74466;BME280;62916;50.044;15.938;2023-07-28T10:44:40;98274.80;;;25.29;44.63
74466;BME280;62916;50.044;15.938;2023-07-28T10:47:11;98282.60;;;25.29;44.85
74466;BME280;62916;50.044;15.938;2023-07-28T10:49:42;98274.71;;;25.28;44.69
74466;BME280;62916;50.044;15.938;2023-07-28T10:52:14;98277.58;;;25.29;44.72
74466;BME280;62916;50.044;15.938;2023-07-28T10:54:46;98276.59;;;25.29;44.90
74466;BME280;62916;50.044;15.938;2023-07-28T10:57:17;98277.48;;;25.28;44.89
74466;BME280;62916;50.044;15.938;2023-07-28T10:59:48;98278.80;;;25.29;44.80
74466;BME280;62916;50.044;15.938;2023-07-28T11:02:21;98275.88;;;25.29;45.08
74466;BME280;62916;50.044;15.938;2023-07-28T11:04:52;98279.58;;;25.28;44.81
74466;BME280;62916;50.044;15.938;2023-07-28T11:07:23;98275.70;;;25.29;44.90
74466;BME280;62916;50.044;15.938;2023-07-28T11:09:55;98273.44;;;25.29;45.03
74466;BME280;62916;50.044;15.938;2023-07-28T11:12:27;98277.50;;;25.29;45.18
74466;BME280;62916;50.044;15.938;2023-07-28T11:14:58;98272.98;;;25.30;45.11
74466;BME280;62916;50.044;15.938;2023-07-28T11:17:29;98272.90;;;25.30;44.81
74466;BME280;62916;50.044;15.938;2023-07-28T11:20:00;98276.88;;;25.30;45.09
74466;BME280;62916;50.044;15.938;2023-07-28T11:22:31;98274.14;;;25.32;45.02
74466;BME280;62916;50.044;15.938;2023-07-28T11:25:02;98270.27;;;25.32;44.97
74466;BME280;62916;50.044;15.938;2023-07-28T11:27:39;98268.98;;;25.33;45.01
74466;BME280;62916;50.044;15.938;2023-07-28T11:30:11;98267.86;;;25.33;44.92
74466;BME280;62916;50.044;15.938;2023-07-28T11:32:44;98272.15;;;25.34;45.03
74466;BME280;62916;50.044;15.938;2023-07-28T11:35:17;98278.33;;;25.34;44.80
74466;BME280;62916;50.044;15.938;2023-07-28T11:37:51;98274.19;;;25.34;44.97
74466;BME280;62916;50.044;15.938;2023-07-28T11:40:23;98267.30;;;25.34;44.76
74466;BME280;62916;50.044;15.938;2023-07-28T11:42:56;98266.17;;;25.34;45.06
74466;BME280;62916;50.044;15.938;2023-07-28T11:45:27;98268.19;;;25.35;45.01
74466;BME280;62916;50.044;15.938;2023-07-28T11:47:59;98270.98;;;25.37;45.11
74466;BME280;62916;50.044;15.938;2023-07-28T11:50:34;98267.86;;;25.38;45.15
74466;BME280;62916;50.044;15.938;2023-07-28T11:53:06;98267.05;;;25.38;44.95
74466;BME280;62916;50.044;15.938;2023-07-28T11:55:38;98272.20;;;25.40;44.85
74466;BME280;62916;50.044;15.938;2023-07-28T11:58:09;98270.97;;;25.39;45.09
74466;BME280;62916;50.044;15.938;2023-07-28T12:00:42;98276.50;;;25.40;44.71
74466;BME280;62916;50.044;15.938;2023-07-28T12:03:14;98276.41;;;25.40;44.90
74466;BME280;62916;50.044;15.938;2023-07-28T12:06:05;98279.16;;;25.39;44.93
74466;BME280;62916;50.044;15.938;2023-07-28T12:08:42;98278.65;;;25.38;44.91
74466;BME280;62916;50.044;15.938;2023-07-28T12:11:15;98278.89;;;25.38;44.83
74466;BME280;62916;50.044;15.938;2023-07-28T12:13:50;98283.90;;;25.37;44.83
74466;BME280;62916;50.044;15.938;2023-07-28T12:16:37;98282.30;;;25.39;45.08
74466;BME280;62916;50.044;15.938;2023-07-28T12:19:11;98280.37;;;25.39;45.06
74466;BME280;62916;50.044;15.938;2023-07-28T12:21:44;98280.79;;;25.39;44.95
74466;BME280;62916;50.044;15.938;2023-07-28T12:24:14;98282.10;;;25.40;45.16
74466;BME280;62916;50.044;15.938;2023-07-28T12:26:46;98280.09;;;25.41;45.09
74466;BME280;62916;50.044;15.938;2023-07-28T12:29:17;98276.94;;;25.41;45.05
74466;BME280;62916;50.044;15.938;2023-07-28T12:31:59;98275.09;;;25.42;44.91
74466;BME280;62916;50.044;15.938;2023-07-28T12:34:32;98270.30;;;25.42;45.26
74466;BME280;62916;50.044;15.938;2023-07-28T12:37:20;98273.05;;;25.42;45.14
74466;BME280;62916;50.044;15.938;2023-07-28T12:40:13;98277.72;;;25.43;45.13
74466;BME280;62916;50.044;15.938;2023-07-28T12:42:47;98282.44;;;25.44;44.95
74466;BME280;62916;50.044;15.938;2023-07-28T12:45:21;98279.61;;;25.45;45.13
74466;BME280;62916;50.044;15.938;2023-07-28T12:47:52;98287.80;;;25.45;44.99
74466;BME280;62916;50.044;15.938;2023-07-28T12:50:27;98287.00;;;25.46;44.88
74466;BME280;62916;50.044;15.938;2023-07-28T12:53:10;98283.92;;;25.46;44.94
74466;BME280;62916;50.044;15.938;2023-07-28T12:55:47;98290.05;;;25.48;45.17
74466;BME280;62916;50.044;15.938;2023-07-28T12:58:22;98288.73;;;25.47;45.09
74466;BME280;62916;50.044;15.938;2023-07-28T13:00:56;98286.79;;;25.47;45.09
74466;BME280;62916;50.044;15.938;2023-07-28T13:03:31;98295.31;;;25.47;44.92
74466;BME280;62916;50.044;15.938;2023-07-28T13:06:02;98297.43;;;25.48;45.03
74466;BME280;62916;50.044;15.938;2023-07-28T13:08:33;98297.52;;;25.48;44.87
74466;BME280;62916;50.044;15.938;2023-07-28T13:11:08;98298.40;;;25.48;45.00
74466;BME280;62916;50.044;15.938;2023-07-28T13:13:42;98305.48;;;25.49;44.93
74466;BME280;62916;50.044;15.938;2023-07-28T13:16:13;98304.08;;;25.51;45.01